首页
METAR-TAF:

METAR-TAF

机场 :

Naval Air Station Whiting Field North

米尔顿, 佛罗里达州, 美国

纬度: 30-44-00N, 经度: 087-01-00W, 海拔: 60米

当前天气观测

该预报发布于4小时和55分钟前的09:56 UTC
静风
温度 2°C
湿度 93%
气压 1025 hPa
能見度: 12.9公里
天空无云

METAR: KNSE 230956Z AUTO 00000KT 8SM CLR 02/01 A3027 RMK AO2 SLP240 T00170011 PNO $

时间: 08:51 (14:51 UTC)

预报

预报有效从23日的 07点(UTC)到 24日的 07点(UTC)
风速5节,风向多变
能见度10公里或以上
少量云层高于25000英尺
从 23日的 1200点(UTC)
风速5节,风向多变
能见度10公里或以上
少量云层高于25000英尺
从 24日的 0000点(UTC)
风速4节,风向多变
能見度: 2321
少量云层高于25000英尺

TAF: KNSE 2307/2407 VRB05KT 9999 FEW250 QNH3022INS FM231200 VRB05KT 9999 FEW250 QNH3018INS FM240000 VRB04KT 9999 FEW250 QNH3012INS AUTOMATED SENSOR METWATCH 2307 TIL 2321 T06/2312Z T17/2321Z FN00085

超过4000个机场的气象观测和天气预报(METAR&TAF报告)。

可查询的气象台以黄色和红色小点在地图上表示。

将鼠标移到小点上方,可查看气象台名称。

然后点击查看天气观测和预报。

如需切换地图:点击带黑十字的绿色按钮放大地图;点击带横线的绿色按钮缩小地图;或者点击绿色箭头查看邻近地区的地图。


METAR-TAF: